sensor_id;sensor_type;location;lat;lon;timestamp;pressure;altitude;pressure_sealevel;temperature;humidity
56334;BME280;42240;53.626;55.886;2023-04-19T00:00:09;77494.19;;;-145.10;45.59
56334;BME280;42240;53.626;55.886;2023-04-19T00:01:43;77498.16;;;-145.10;45.87
56334;BME280;42240;53.626;55.886;2023-04-19T00:03:15;77482.31;;;-145.10;45.47
56334;BME280;42240;53.626;55.886;2023-04-19T00:04:49;77498.16;;;-145.10;45.66
56334;BME280;42240;53.626;55.886;2023-04-19T00:06:22;77496.16;;;-145.10;45.59
56334;BME280;42240;53.626;55.886;2023-04-19T00:07:56;77494.19;;;-145.10;45.97
56334;BME280;42240;53.626;55.886;2023-04-19T00:09:29;77513.97;;;-145.10;45.34
56334;BME280;42240;53.626;55.886;2023-04-19T00:11:01;77466.50;;;-145.10;45.06
56334;BME280;42240;53.626;55.886;2023-04-19T00:12:35;77486.28;;;-145.10;45.62
56334;BME280;42240;53.626;55.886;2023-04-19T00:14:07;77478.38;;;-145.10;45.52
56334;BME280;42240;53.626;55.886;2023-04-19T00:15:40;77470.47;;;-145.10;45.28
56334;BME280;42240;53.626;55.886;2023-04-19T00:17:13;77486.28;;;-145.10;45.68
56334;BME280;42240;53.626;55.886;2023-04-19T00:18:46;77474.41;;;-145.10;45.22
56334;BME280;42240;53.626;55.886;2023-04-19T00:20:20;77456.59;;;-145.10;45.01
56334;BME280;42240;53.626;55.886;2023-04-19T00:21:53;77466.50;;;-145.10;45.18
56334;BME280;42240;53.626;55.886;2023-04-19T00:23:26;77470.47;;;-145.10;45.49
56334;BME280;42240;53.626;55.886;2023-04-19T00:25:00;77462.53;;;-145.10;45.46
56334;BME280;42240;53.626;55.886;2023-04-19T00:26:34;77466.50;;;-145.10;45.37
56334;BME280;42240;53.626;55.886;2023-04-19T00:28:07;77454.63;;;-145.10;45.51
56334;BME280;42240;53.626;55.886;2023-04-19T00:29:39;77452.66;;;-145.10;45.50
56334;BME280;42240;53.626;55.886;2023-04-19T00:31:13;77464.53;;;-145.10;45.42
56334;BME280;42240;53.626;55.886;2023-04-19T00:32:46;77470.47;;;-145.10;45.65
56334;BME280;42240;53.626;55.886;2023-04-19T00:34:19;77470.47;;;-145.10;45.95
56334;BME280;42240;53.626;55.886;2023-04-19T00:35:52;77470.47;;;-145.10;45.73
56334;BME280;42240;53.626;55.886;2023-04-19T00:37:25;77486.28;;;-145.10;46.19
56334;BME280;42240;53.626;55.886;2023-04-19T00:38:58;77468.47;;;-145.10;46.47
56334;BME280;42240;53.626;55.886;2023-04-19T00:40:31;77472.44;;;-145.10;46.27
56334;BME280;42240;53.626;55.886;2023-04-19T00:42:04;77456.59;;;-145.10;46.11
56334;BME280;42240;53.626;55.886;2023-04-19T00:43:37;77482.31;;;-145.10;46.56
56334;BME280;42240;53.626;55.886;2023-04-19T00:45:11;77490.22;;;-145.10;46.71
56334;BME280;42240;53.626;55.886;2023-04-19T00:46:44;77478.38;;;-145.10;46.34
56334;BME280;42240;53.626;55.886;2023-04-19T00:48:17;77474.41;;;-145.10;46.42
56334;BME280;42240;53.626;55.886;2023-04-19T00:49:50;77482.31;;;-145.10;46.28
56334;BME280;42240;53.626;55.886;2023-04-19T00:51:24;77468.47;;;-145.10;46.32
56334;BME280;42240;53.626;55.886;2023-04-19T00:52:58;77470.47;;;-145.10;46.13
56334;BME280;42240;53.626;55.886;2023-04-19T00:54:32;77462.53;;;-145.10;45.80
56334;BME280;42240;53.626;55.886;2023-04-19T00:56:05;77462.53;;;-145.10;45.76
56334;BME280;42240;53.626;55.886;2023-04-19T00:57:39;77456.59;;;-145.10;45.87
56334;BME280;42240;53.626;55.886;2023-04-19T00:59:14;77462.53;;;-145.10;45.91
56334;BME280;42240;53.626;55.886;2023-04-19T01:00:47;77472.44;;;-145.10;46.07
56334;BME280;42240;53.626;55.886;2023-04-19T01:02:20;77464.53;;;-145.10;45.91
56334;BME280;42240;53.626;55.886;2023-04-19T01:03:54;77464.53;;;-145.10;45.77
56334;BME280;42240;53.626;55.886;2023-04-19T01:05:27;77478.38;;;-145.10;45.86
56334;BME280;42240;53.626;55.886;2023-04-19T01:07:00;77480.34;;;-145.10;46.31
56334;BME280;42240;53.626;55.886;2023-04-19T01:08:33;77478.38;;;-145.10;46.44
56334;BME280;42240;53.626;55.886;2023-04-19T01:10:06;77466.50;;;-145.10;46.04
56334;BME280;42240;53.626;55.886;2023-04-19T01:11:39;77466.50;;;-145.10;46.05
56334;BME280;42240;53.626;55.886;2023-04-19T01:13:14;77460.56;;;-145.10;46.01
56334;BME280;42240;53.626;55.886;2023-04-19T01:14:49;77462.53;;;-145.10;46.09
56334;BME280;42240;53.626;55.886;2023-04-19T01:16:22;77466.50;;;-145.10;46.17
56334;BME280;42240;53.626;55.886;2023-04-19T01:17:55;77474.41;;;-145.10;46.38
56334;BME280;42240;53.626;55.886;2023-04-19T01:19:28;77474.41;;;-145.10;46.58
56334;BME280;42240;53.626;55.886;2023-04-19T01:21:02;77450.69;;;-145.10;46.22
56334;BME280;42240;53.626;55.886;2023-04-19T01:22:36;77454.63;;;-145.10;46.32
56334;BME280;42240;53.626;55.886;2023-04-19T01:24:10;77448.69;;;-145.10;45.98
56334;BME280;42240;53.626;55.886;2023-04-19T01:25:42;77440.78;;;-145.10;45.67
56334;BME280;42240;53.626;55.886;2023-04-19T01:27:16;77438.81;;;-145.10;46.13
56334;BME280;42240;53.626;55.886;2023-04-19T01:28:49;77428.91;;;-145.10;45.69
56334;BME280;42240;53.626;55.886;2023-04-19T01:30:22;77438.81;;;-145.10;45.71
56334;BME280;42240;53.626;55.886;2023-04-19T01:31:55;77430.91;;;-145.10;45.40
56334;BME280;42240;53.626;55.886;2023-04-19T01:33:31;77426.94;;;-145.10;45.56
56334;BME280;42240;53.626;55.886;2023-04-19T01:35:04;77426.94;;;-145.10;45.38
56334;BME280;42240;53.626;55.886;2023-04-19T01:36:38;77430.91;;;-145.10;45.39
56334;BME280;42240;53.626;55.886;2023-04-19T01:38:10;77430.91;;;-145.10;45.41
56334;BME280;42240;53.626;55.886;2023-04-19T01:39:45;77434.84;;;-145.10;45.31
56334;BME280;42240;53.626;55.886;2023-04-19T01:41:18;77436.84;;;-145.10;45.21
56334;BME280;42240;53.626;55.886;2023-04-19T01:42:53;77434.84;;;-145.10;45.67
56334;BME280;42240;53.626;55.886;2023-04-19T01:44:26;77430.91;;;-145.10;45.34
56334;BME280;42240;53.626;55.886;2023-04-19T01:45:58;77430.91;;;-145.10;45.50
56334;BME280;42240;53.626;55.886;2023-04-19T01:47:31;77430.91;;;-145.10;45.47
56334;BME280;42240;53.626;55.886;2023-04-19T01:49:07;77423.00;;;-145.10;45.09
56334;BME280;42240;53.626;55.886;2023-04-19T01:50:40;77434.84;;;-145.10;45.37
56334;BME280;42240;53.626;55.886;2023-04-19T01:52:12;77434.84;;;-145.10;45.68
56334;BME280;42240;53.626;55.886;2023-04-19T01:53:45;77438.81;;;-145.10;45.65
56334;BME280;42240;53.626;55.886;2023-04-19T01:55:18;77407.16;;;-145.10;45.48
56334;BME280;42240;53.626;55.886;2023-04-19T01:56:51;77430.91;;;-145.10;45.32
56334;BME280;42240;53.626;55.886;2023-04-19T01:58:24;77387.38;;;-145.10;45.42
56334;BME280;42240;53.626;55.886;2023-04-19T01:59:57;77367.59;;;-145.10;45.04
56334;BME280;42240;53.626;55.886;2023-04-19T02:01:33;77367.59;;;-145.10;44.94
56334;BME280;42240;53.626;55.886;2023-04-19T02:03:05;77351.78;;;-145.10;44.79
56334;BME280;42240;53.626;55.886;2023-04-19T02:04:39;77345.84;;;-145.10;44.56
56334;BME280;42240;53.626;55.886;2023-04-19T02:06:12;77328.06;;;-145.10;44.33
56334;BME280;42240;53.626;55.886;2023-04-19T02:07:45;77320.13;;;-145.10;44.07
56334;BME280;42240;53.626;55.886;2023-04-19T02:09:18;77302.34;;;-145.10;43.94
56334;BME280;42240;53.626;55.886;2023-04-19T02:10:51;77288.50;;;-145.10;43.87
56334;BME280;42240;53.626;55.886;2023-04-19T02:12:27;77225.22;;;-145.10;43.59
56334;BME280;42240;53.626;55.886;2023-04-19T02:14:00;77146.09;;;-145.10;43.14
56334;BME280;42240;53.626;55.886;2023-04-19T02:15:35;77051.19;;;-145.10;41.89
56334;BME280;42240;53.626;55.886;2023-04-19T02:17:08;76991.84;;;-145.10;41.01
56334;BME280;42240;53.626;55.886;2023-04-19T02:18:43;76983.94;;;-145.10;40.01
56334;BME280;42240;53.626;55.886;2023-04-19T02:20:18;77047.22;;;-145.10;40.17
56334;BME280;42240;53.626;55.886;2023-04-19T02:21:53;77063.03;;;-145.10;40.46
56334;BME280;42240;53.626;55.886;2023-04-19T02:23:29;77096.66;;;-145.10;40.54
56334;BME280;42240;53.626;55.886;2023-04-19T02:25:02;77118.41;;;-145.10;40.64
56334;BME280;42240;53.626;55.886;2023-04-19T02:26:36;77106.56;;;-145.10;40.75
56334;BME280;42240;53.626;55.886;2023-04-19T02:28:09;77055.13;;;-145.10;40.43
56334;BME280;42240;53.626;55.886;2023-04-19T02:29:42;77047.22;;;-145.10;40.25
56334;BME280;42240;53.626;55.886;2023-04-19T02:31:15;77055.13;;;-145.10;39.95
56334;BME280;42240;53.626;55.886;2023-04-19T02:32:48;77070.94;;;-145.10;40.00
56334;BME280;42240;53.626;55.886;2023-04-19T02:34:21;77080.84;;;-145.10;40.07
56334;BME280;42240;53.626;55.886;2023-04-19T02:35:54;77059.09;;;-145.10;39.97
56334;BME280;42240;53.626;55.886;2023-04-19T02:37:27;77063.03;;;-145.10;39.69
56334;BME280;42240;53.626;55.886;2023-04-19T02:39:01;77090.72;;;-145.10;40.06
56334;BME280;42240;53.626;55.886;2023-04-19T02:40:34;77169.84;;;-145.10;40.50
56334;BME280;42240;53.626;55.886;2023-04-19T02:42:08;77159.94;;;-145.10;41.00
56334;BME280;42240;53.626;55.886;2023-04-19T02:43:41;77171.81;;;-145.10;41.41
56334;BME280;42240;53.626;55.886;2023-04-19T02:45:17;77189.59;;;-145.10;41.95
56334;BME280;42240;53.626;55.886;2023-04-19T02:46:51;77185.66;;;-145.10;41.88
56334;BME280;42240;53.626;55.886;2023-04-19T02:48:24;77161.94;;;-145.10;42.19
56334;BME280;42240;53.626;55.886;2023-04-19T02:49:58;77152.03;;;-145.10;42.45
56334;BME280;42240;53.626;55.886;2023-04-19T02:51:32;77146.09;;;-145.10;42.25
56334;BME280;42240;53.626;55.886;2023-04-19T02:53:05;77142.16;;;-145.10;42.41
56334;BME280;42240;53.626;55.886;2023-04-19T02:54:41;77102.59;;;-145.10;42.52
56334;BME280;42240;53.626;55.886;2023-04-19T02:56:15;77094.69;;;-145.10;41.79
56334;BME280;42240;53.626;55.886;2023-04-19T02:57:48;77082.81;;;-145.10;41.20
56334;BME280;42240;53.626;55.886;2023-04-19T02:59:21;77023.50;;;-145.10;41.28
56334;BME280;42240;53.626;55.886;2023-04-19T03:00:56;76983.94;;;-145.10;40.71
56334;BME280;42240;53.626;55.886;2023-04-19T03:02:28;76898.91;;;-145.10;40.26
56334;BME280;42240;53.626;55.886;2023-04-19T03:04:02;76754.53;;;-145.10;39.01
56334;BME280;42240;53.626;55.886;2023-04-19T03:05:35;76647.75;;;-145.10;37.40
56334;BME280;42240;53.626;55.886;2023-04-19T03:07:08;76529.13;;;-145.10;35.79
56334;BME280;42240;53.626;55.886;2023-04-19T03:08:44;76497.47;;;-145.10;34.92
56334;BME280;42240;53.626;55.886;2023-04-19T03:10:17;76323.47;;;-145.10;34.41
56334;BME280;42240;53.626;55.886;2023-04-19T03:11:51;76236.47;;;-145.10;32.55
56334;BME280;42240;53.626;55.886;2023-04-19T03:13:24;76177.16;;;-145.10;31.65
56334;BME280;42240;53.626;55.886;2023-04-19T03:14:57;76133.66;;;-145.10;31.59
56334;BME280;42240;53.626;55.886;2023-04-19T03:16:30;76078.31;;;-145.10;31.23
56334;BME280;42240;53.626;55.886;2023-04-19T03:18:03;76052.59;;;-145.10;30.56
56334;BME280;42240;53.626;55.886;2023-04-19T03:19:37;76007.13;;;-145.10;30.17
56334;BME280;42240;53.626;55.886;2023-04-19T03:21:11;75945.84;;;-145.10;30.17
56334;BME280;42240;53.626;55.886;2023-04-19T03:22:55;76015.03;;;-145.10;29.73
56334;BME280;42240;53.626;55.886;2023-04-19T03:24:29;76086.22;;;-145.10;30.19
56334;BME280;42240;53.626;55.886;2023-04-19T03:26:08;76058.53;;;-145.10;29.73
56334;BME280;42240;53.626;55.886;2023-04-19T03:27:46;76090.16;;;-145.10;29.69
56334;BME280;42240;53.626;55.886;2023-04-19T03:29:24;76007.13;;;-145.10;29.31
56334;BME280;42240;53.626;55.886;2023-04-19T03:31:12;75902.34;;;-145.10;28.99
56334;BME280;42240;53.626;55.886;2023-04-19T03:32:47;75892.47;;;-145.10;28.48
56334;BME280;42240;53.626;55.886;2023-04-19T03:34:20;75750.13;;;-145.10;28.10
56334;BME280;42240;53.626;55.886;2023-04-19T03:35:53;75651.25;;;-145.10;27.48
56334;BME280;42240;53.626;55.886;2023-04-19T03:37:27;75508.94;;;-145.10;26.77
56334;BME280;42240;53.626;55.886;2023-04-19T03:39:02;75591.97;;;-145.10;26.68
56334;BME280;42240;53.626;55.886;2023-04-19T03:40:38;75688.81;;;-145.10;26.99
56334;BME280;42240;53.626;55.886;2023-04-19T03:42:16;75714.53;;;-145.10;27.05
56334;BME280;42240;53.626;55.886;2023-04-19T03:43:59;75748.13;;;-145.10;27.20
56334;BME280;42240;53.626;55.886;2023-04-19T03:45:32;75623.59;;;-145.10;26.76
56334;BME280;42240;53.626;55.886;2023-04-19T03:47:05;75829.19;;;-145.10;27.46
56334;BME280;42240;53.626;55.886;2023-04-19T03:48:45;75793.59;;;-145.10;27.66
56334;BME280;42240;53.626;55.886;2023-04-19T03:50:19;75659.16;;;-145.10;27.13
56334;BME280;42240;53.626;55.886;2023-04-19T03:51:55;75504.97;;;-145.10;26.36
56334;BME280;42240;53.626;55.886;2023-04-19T03:53:28;75615.69;;;-145.10;26.55
56334;BME280;42240;53.626;55.886;2023-04-19T03:55:02;75603.81;;;-145.10;26.50
56334;BME280;42240;53.626;55.886;2023-04-19T03:56:40;75698.72;;;-145.10;26.67
56334;BME280;42240;53.626;55.886;2023-04-19T03:58:13;75588.00;;;-145.10;26.58
56334;BME280;42240;53.626;55.886;2023-04-19T03:59:55;75653.25;;;-145.10;26.37
56334;BME280;42240;53.626;55.886;2023-04-19T04:01:28;75635.44;;;-145.10;26.63
56334;BME280;42240;53.626;55.886;2023-04-19T04:03:01;75501.03;;;-145.10;26.31
56334;BME280;42240;53.626;55.886;2023-04-19T04:04:35;75374.50;;;-145.10;25.53
56334;BME280;42240;53.626;55.886;2023-04-19T04:06:10;75580.09;;;-145.10;26.12
56334;BME280;42240;53.626;55.886;2023-04-19T04:07:43;75588.00;;;-145.10;26.19
56334;BME280;42240;53.626;55.886;2023-04-19T04:09:16;75625.56;;;-145.10;26.33
56334;BME280;42240;53.626;55.886;2023-04-19T04:10:49;75467.41;;;-145.10;25.92
56334;BME280;42240;53.626;55.886;2023-04-19T04:12:22;75532.66;;;-145.10;25.28
56334;BME280;42240;53.626;55.886;2023-04-19T04:13:57;75609.75;;;-145.10;25.68
56334;BME280;42240;53.626;55.886;2023-04-19T04:15:33;75421.94;;;-145.10;25.42
56334;BME280;42240;53.626;55.886;2023-04-19T04:17:07;75334.97;;;-145.10;25.01
56334;BME280;42240;53.626;55.886;2023-04-19T04:18:40;75242.06;;;-145.10;24.63
56334;BME280;42240;53.626;55.886;2023-04-19T04:20:15;75194.63;;;-145.10;24.57
56334;BME280;42240;53.626;55.886;2023-04-19T04:21:49;75216.38;;;-145.10;24.18
56334;BME280;42240;53.626;55.886;2023-04-19T04:23:24;75346.81;;;-145.10;24.64
56334;BME280;42240;53.626;55.886;2023-04-19T04:24:57;75273.69;;;-145.10;24.36
56334;BME280;42240;53.626;55.886;2023-04-19T04:26:36;75212.41;;;-145.10;24.11
56334;BME280;42240;53.626;55.886;2023-04-19T04:28:25;75196.59;;;-145.10;23.58
56334;BME280;42240;53.626;55.886;2023-04-19T04:29:58;75066.13;;;-145.10;23.75
56334;BME280;42240;53.626;55.886;2023-04-19T04:31:35;75089.84;;;-145.10;23.37
56334;BME280;42240;53.626;55.886;2023-04-19T04:33:09;74996.94;;;-145.10;23.68
56334;BME280;42240;53.626;55.886;2023-04-19T04:34:45;75105.66;;;-145.10;23.44
56334;BME280;42240;53.626;55.886;2023-04-19T04:36:27;75340.91;;;-145.10;24.29
56334;BME280;42240;53.626;55.886;2023-04-19T04:38:01;75253.91;;;-145.10;24.33
56334;BME280;42240;53.626;55.886;2023-04-19T04:39:45;75354.72;;;-145.10;24.23
56334;BME280;42240;53.626;55.886;2023-04-19T04:41:18;75299.38;;;-145.10;24.66
56334;BME280;42240;53.626;55.886;2023-04-19T04:42:54;75331.00;;;-145.10;24.41
56334;BME280;42240;53.626;55.886;2023-04-19T04:44:27;75224.28;;;-145.10;24.03
56334;BME280;42240;53.626;55.886;2023-04-19T04:46:01;75216.38;;;-145.10;24.16
56334;BME280;42240;53.626;55.886;2023-04-19T04:47:41;75072.06;;;-145.10;23.79
56334;BME280;42240;53.626;55.886;2023-04-19T04:49:15;75050.31;;;-145.10;23.47
56334;BME280;42240;53.626;55.886;2023-04-19T04:50:48;74969.28;;;-145.10;23.24
56334;BME280;42240;53.626;55.886;2023-04-19T04:52:22;75062.19;;;-145.10;23.54
56334;BME280;42240;53.626;55.886;2023-04-19T04:54:06;75224.28;;;-145.10;23.94
56334;BME280;42240;53.626;55.886;2023-04-19T04:55:39;75161.00;;;-145.10;23.93
56334;BME280;42240;53.626;55.886;2023-04-19T04:57:12;75249.97;;;-145.10;24.23
56334;BME280;42240;53.626;55.886;2023-04-19T04:58:45;75366.59;;;-145.10;24.26
56334;BME280;42240;53.626;55.886;2023-04-19T05:00:25;75321.13;;;-145.10;24.62
56334;BME280;42240;53.626;55.886;2023-04-19T05:02:04;75295.44;;;-145.10;24.05
56334;BME280;42240;53.626;55.886;2023-04-19T05:03:38;75303.34;;;-145.10;23.99
56334;BME280;42240;53.626;55.886;2023-04-19T05:05:16;75054.28;;;-145.10;23.62
56334;BME280;42240;53.626;55.886;2023-04-19T05:06:49;75052.31;;;-145.10;23.16
56334;BME280;42240;53.626;55.886;2023-04-19T05:08:27;74919.88;;;-145.10;22.80
56334;BME280;42240;53.626;55.886;2023-04-19T05:10:11;75060.22;;;-145.10;23.30
56334;BME280;42240;53.626;55.886;2023-04-19T05:11:49;74963.34;;;-145.10;22.73
56334;BME280;42240;53.626;55.886;2023-04-19T05:13:22;74908.00;;;-145.10;22.43
56334;BME280;42240;53.626;55.886;2023-04-19T05:14:56;74888.25;;;-145.10;22.83
56334;BME280;42240;53.626;55.886;2023-04-19T05:16:29;74908.00;;;-145.10;22.58
56334;BME280;42240;53.626;55.886;2023-04-19T05:18:02;74876.38;;;-145.10;22.23
56334;BME280;42240;53.626;55.886;2023-04-19T05:19:35;74989.03;;;-145.10;22.46
56334;BME280;42240;53.626;55.886;2023-04-19T05:21:11;75062.19;;;-145.10;22.65
56334;BME280;42240;53.626;55.886;2023-04-19T05:22:45;75006.84;;;-145.10;22.89
56334;BME280;42240;53.626;55.886;2023-04-19T05:24:18;75287.53;;;-145.10;23.39
56334;BME280;42240;53.626;55.886;2023-04-19T05:25:51;75168.91;;;-145.10;23.18
56334;BME280;42240;53.626;55.886;2023-04-19T05:27:27;75220.31;;;-145.10;23.51
56334;BME280;42240;53.626;55.886;2023-04-19T05:29:00;75078.00;;;-145.10;23.02
56334;BME280;42240;53.626;55.886;2023-04-19T05:30:45;75327.06;;;-145.10;23.54
56334;BME280;42240;53.626;55.886;2023-04-19T05:32:18;75354.72;;;-145.10;23.77
56334;BME280;42240;53.626;55.886;2023-04-19T05:33:58;75416.00;;;-145.10;23.96
56334;BME280;42240;53.626;55.886;2023-04-19T05:35:32;75406.13;;;-145.10;24.21
56334;BME280;42240;53.626;55.886;2023-04-19T05:37:05;75425.91;;;-145.10;24.46
56334;BME280;42240;53.626;55.886;2023-04-19T05:38:38;75416.00;;;-145.10;24.13
56334;BME280;42240;53.626;55.886;2023-04-19T05:40:12;75236.13;;;-145.10;23.74
56334;BME280;42240;53.626;55.886;2023-04-19T05:41:45;75172.88;;;-145.10;23.51
56334;BME280;42240;53.626;55.886;2023-04-19T05:43:19;75307.28;;;-145.10;23.63
56334;BME280;42240;53.626;55.886;2023-04-19T05:44:53;75168.91;;;-145.10;23.66
56334;BME280;42240;53.626;55.886;2023-04-19T05:46:27;74994.97;;;-145.10;22.81
56334;BME280;42240;53.626;55.886;2023-04-19T05:48:01;75301.38;;;-145.10;23.15
56334;BME280;42240;53.626;55.886;2023-04-19T05:50:01;75386.38;;;-145.10;23.36
56334;BME280;42240;53.626;55.886;2023-04-19T05:51:37;75348.81;;;-145.10;23.81
56334;BME280;42240;53.626;55.886;2023-04-19T05:53:14;75137.28;;;-145.10;23.40
56334;BME280;42240;53.626;55.886;2023-04-19T05:54:48;75081.94;;;-145.10;22.90
56334;BME280;42240;53.626;55.886;2023-04-19T05:56:22;74989.03;;;-145.10;22.64
56334;BME280;42240;53.626;55.886;2023-04-19T05:57:55;75125.44;;;-145.10;23.29
56334;BME280;42240;53.626;55.886;2023-04-19T05:59:29;75074.03;;;-145.10;22.84
56334;BME280;42240;53.626;55.886;2023-04-19T06:01:03;75040.44;;;-145.10;23.15
56334;BME280;42240;53.626;55.886;2023-04-19T06:02:38;74967.31;;;-145.10;22.61
56334;BME280;42240;53.626;55.886;2023-04-19T06:04:15;75002.88;;;-145.10;22.62
56334;BME280;42240;53.626;55.886;2023-04-19T06:05:48;75216.38;;;-145.10;22.77
56334;BME280;42240;53.626;55.886;2023-04-19T06:07:22;75149.16;;;-145.10;22.70
56334;BME280;42240;53.626;55.886;2023-04-19T06:09:05;75265.78;;;-145.10;22.98
56334;BME280;42240;53.626;55.886;2023-04-19T06:10:39;75378.47;;;-145.10;23.45
56334;BME280;42240;53.626;55.886;2023-04-19T06:12:25;75402.19;;;-145.10;23.77
56334;BME280;42240;53.626;55.886;2023-04-19T06:13:58;75259.84;;;-145.10;23.22
56334;BME280;42240;53.626;55.886;2023-04-19T06:15:32;75287.53;;;-145.10;23.39
56334;BME280;42240;53.626;55.886;2023-04-19T06:17:05;75186.72;;;-145.10;23.19
56334;BME280;42240;53.626;55.886;2023-04-19T06:18:39;75321.13;;;-145.10;23.22
56334;BME280;42240;53.626;55.886;2023-04-19T06:20:12;75445.66;;;-145.10;23.56
56334;BME280;42240;53.626;55.886;2023-04-19T06:21:46;75378.47;;;-145.10;23.72
56334;BME280;42240;53.626;55.886;2023-04-19T06:23:20;75331.00;;;-145.10;23.47
56334;BME280;42240;53.626;55.886;2023-04-19T06:24:53;75228.22;;;-145.10;22.97
56334;BME280;42240;53.626;55.886;2023-04-19T06:26:26;75257.88;;;-145.10;23.31
56334;BME280;42240;53.626;55.886;2023-04-19T06:28:00;75338.91;;;-145.10;23.46
56334;BME280;42240;53.626;55.886;2023-04-19T06:29:33;75471.38;;;-145.10;23.72
56334;BME280;42240;53.626;55.886;2023-04-19T06:31:12;75532.66;;;-145.10;23.93
56334;BME280;42240;53.626;55.886;2023-04-19T06:32:45;75536.59;;;-145.10;23.74
56334;BME280;42240;53.626;55.886;2023-04-19T06:34:19;75552.41;;;-145.10;24.10
56334;BME280;42240;53.626;55.886;2023-04-19T06:35:52;75548.47;;;-145.10;24.29
56334;BME280;42240;53.626;55.886;2023-04-19T06:37:25;75524.75;;;-145.10;24.22
56334;BME280;42240;53.626;55.886;2023-04-19T06:38:58;75548.47;;;-145.10;24.09
56334;BME280;42240;53.626;55.886;2023-04-19T06:40:31;75663.13;;;-145.10;24.45
56334;BME280;42240;53.626;55.886;2023-04-19T06:42:06;75663.13;;;-145.10;24.54
56334;BME280;42240;53.626;55.886;2023-04-19T06:43:39;75580.09;;;-145.10;24.50
56334;BME280;42240;53.626;55.886;2023-04-19T06:45:14;75724.41;;;-145.10;24.73
56334;BME280;42240;53.626;55.886;2023-04-19T06:46:47;75718.47;;;-145.10;24.83
56334;BME280;42240;53.626;55.886;2023-04-19T06:48:21;75756.03;;;-145.10;24.89
56334;BME280;42240;53.626;55.886;2023-04-19T06:49:54;75712.56;;;-145.10;25.19
56334;BME280;42240;53.626;55.886;2023-04-19T06:51:27;75692.78;;;-145.10;24.49
56334;BME280;42240;53.626;55.886;2023-04-19T06:53:01;75696.72;;;-145.10;24.74
56334;BME280;42240;53.626;55.886;2023-04-19T06:54:36;75748.13;;;-145.10;24.90
56334;BME280;42240;53.626;55.886;2023-04-19T06:56:09;75643.34;;;-145.10;24.90
56334;BME280;42240;53.626;55.886;2023-04-19T06:57:42;75678.94;;;-145.10;24.42
56334;BME280;42240;53.626;55.886;2023-04-19T06:59:17;75649.28;;;-145.10;24.42
56334;BME280;42240;53.626;55.886;2023-04-19T07:00:51;75694.75;;;-145.10;24.66
56334;BME280;42240;53.626;55.886;2023-04-19T07:02:24;75807.44;;;-145.10;25.02
56334;BME280;42240;53.626;55.886;2023-04-19T07:04:00;75777.78;;;-145.10;25.09
56334;BME280;42240;53.626;55.886;2023-04-19T07:05:35;75763.94;;;-145.10;24.81
56334;BME280;42240;53.626;55.886;2023-04-19T07:07:08;75817.31;;;-145.10;25.19
56334;BME280;42240;53.626;55.886;2023-04-19T07:08:41;75811.41;;;-145.10;25.36
56334;BME280;42240;53.626;55.886;2023-04-19T07:10:19;75841.06;;;-145.10;25.70
56334;BME280;42240;53.626;55.886;2023-04-19T07:11:53;75858.84;;;-145.10;25.80
56334;BME280;42240;53.626;55.886;2023-04-19T07:13:26;75898.38;;;-145.10;25.79
56334;BME280;42240;53.626;55.886;2023-04-19T07:14:59;75797.56;;;-145.10;25.45
56334;BME280;42240;53.626;55.886;2023-04-19T07:16:35;75744.19;;;-145.10;25.75
56334;BME280;42240;53.626;55.886;2023-04-19T07:18:08;75696.72;;;-145.10;25.32
56334;BME280;42240;53.626;55.886;2023-04-19T07:19:47;75744.19;;;-145.10;25.30
56334;BME280;42240;53.626;55.886;2023-04-19T07:21:21;75744.19;;;-145.10;25.35
56334;BME280;42240;53.626;55.886;2023-04-19T07:22:54;75651.25;;;-145.10;25.28
56334;BME280;42240;53.626;55.886;2023-04-19T07:24:29;75568.22;;;-145.10;24.83
56334;BME280;42240;53.626;55.886;2023-04-19T07:26:03;75568.22;;;-145.10;24.71
56334;BME280;42240;53.626;55.886;2023-04-19T07:27:36;75536.59;;;-145.10;24.33
56334;BME280;42240;53.626;55.886;2023-04-19T07:29:09;75688.81;;;-145.10;24.54
56334;BME280;42240;53.626;55.886;2023-04-19T07:30:44;75700.69;;;-145.10;25.04
56334;BME280;42240;53.626;55.886;2023-04-19T07:32:18;75663.13;;;-145.10;24.85
56334;BME280;42240;53.626;55.886;2023-04-19T07:33:51;75621.59;;;-145.10;24.63
56334;BME280;42240;53.626;55.886;2023-04-19T07:35:25;75748.13;;;-145.10;24.61
56334;BME280;42240;53.626;55.886;2023-04-19T07:36:57;75773.84;;;-145.10;24.81
56334;BME280;42240;53.626;55.886;2023-04-19T07:38:31;75724.41;;;-145.10;24.92
56334;BME280;42240;53.626;55.886;2023-04-19T07:40:04;75580.09;;;-145.10;24.52
56334;BME280;42240;53.626;55.886;2023-04-19T07:41:37;75627.53;;;-145.10;24.17
56334;BME280;42240;53.626;55.886;2023-04-19T07:43:10;75544.50;;;-145.10;24.14
56334;BME280;42240;53.626;55.886;2023-04-19T07:44:44;75473.34;;;-145.10;24.05
56334;BME280;42240;53.626;55.886;2023-04-19T07:46:17;75441.72;;;-145.10;23.66
56334;BME280;42240;53.626;55.886;2023-04-19T07:47:50;75457.53;;;-145.10;23.80
56334;BME280;42240;53.626;55.886;2023-04-19T07:49:23;75501.03;;;-145.10;23.84
56334;BME280;42240;53.626;55.886;2023-04-19T07:50:56;75516.84;;;-145.10;24.14
56334;BME280;42240;53.626;55.886;2023-04-19T07:52:29;75572.19;;;-145.10;23.90
56334;BME280;42240;53.626;55.886;2023-04-19T07:54:02;75696.72;;;-145.10;24.63
56334;BME280;42240;53.626;55.886;2023-04-19T07:55:35;75716.50;;;-145.10;24.75
56334;BME280;42240;53.626;55.886;2023-04-19T07:57:08;75738.25;;;-145.10;24.61
56334;BME280;42240;53.626;55.886;2023-04-19T07:58:41;75789.66;;;-145.10;24.94
56334;BME280;42240;53.626;55.886;2023-04-19T08:00:17;75758.03;;;-145.10;24.92